This is the latest recevied weather packets stored in our database for station/object VA6NA. If no packets are shown the sender has not sent any weather packets the latest 10 day(s).
| Time | Temp. | Humidity | Pressure | Rain* | Wind** | Luminosity | Snow |
|---|---|---|---|---|---|---|---|
| 1777735228 | 17.22° C | 51% | 1021.7 hPa | 0 mm | - | - | - |
| 1777732224 | 13.33° C | 60% | 1021.9 hPa | 0 mm | - | - | - |
| 1777729822 | 10.56° C | 66% | 1022.1 hPa | 0 mm | - | - | - |
| 1777726267 | 6.67° C | 78% | 1021.9 hPa | 0 mm | - | - | - |
| 1777725620 | 6.11° C | 79% | 1021.9 hPa | 0 mm | - | - | - |
| 1777722626 | 4.44° C | 83% | 1021.5 hPa | 0 mm | - | - | - |
| 1777718422 | 6.11° C | 81% | 1021.5 hPa | 0 mm | - | - | - |
| 1777712420 | 5° C | 83% | 1021.2 hPa | 0 mm | - | - | - |
| 1777711227 | 5.56° C | 81% | 1021.1 hPa | 0 mm | - | - | - |
| 1777707626 | 6.67° C | 77% | 1021 hPa | 0 mm | - | - | - |
| 1777705232 | 8.33° C | 74% | 1020.8 hPa | 0 mm | - | - | - |
| 1777704636 | 8.33° C | 73% | 1020.8 hPa | 0 mm | - | - | - |
| 1777704016 | 8.89° C | 73% | 1020.7 hPa | 0 mm | - | - | - |
| 1777702820 | 9.44° C | 72% | 1020.6 hPa | 0 mm | - | - | - |
| 1777700420 | 10.56° C | 69% | 1020.5 hPa | 0 mm | - | - | - |
| 1777699821 | 11.11° C | 68% | 1020.4 hPa | 0 mm | - | - | - |
| 1777696227 | 12.22° C | 63% | 1020 hPa | 0 mm | - | - | - |
| 1777685118 | 17.78° C | 44% | 1017.6 hPa | 0 mm | - | - | - |
| 1777682733 | 18.33° C | 42% | 1017.5 hPa | 0 mm | - | - | - |
| 1777682128 | 18.89° C | 42% | 1017.5 hPa | 0 mm | - | - | - |
| 1777681522 | 18.89° C | 42% | 1017.5 hPa | 0 mm | - | - | - |
| 1777679751 | 19.44° C | 41% | 1017.4 hPa | 0 mm | - | - | - |
| 1777671325 | 20° C | 44% | 1017.6 hPa | 0 mm | - | - | - |
| 1777670133 | 18.89° C | 47% | 1017.8 hPa | 0 mm | - | - | - |
| 1777664725 | 18.89° C | 46% | 1017.8 hPa | 0 mm | - | - | - |
* Rain latest hour (hover to see other rain measurements)
** Current wind speed in m/s (hover to see current wind gust speed)